Time;durP1;ratioP1;P1;durP2;ratioP2;P2;SDS_P1;SDS_P2;PMS_P1;PMS_P2;Temp;Humidity;BMP_temperature;BMP_pressure;BME280_temperature;BME280_humidity;BME280_pressure;Samples;Min_cycle;Max_cycle;Signal;HPM_P1;HPM_P2
2022/07/04 00:01:53;;;;;;;;;;;;;;;;;;4947862;28;19925;-65
2022/07/04 00:04:19;;;;;;;;;;;;;;;;;;4963682;28;19950;-64
2022/07/04 00:06:44;;;;;;;;;;;;;;;;;;4959061;28;20016;-65
2022/07/04 00:09:09;;;;;;;;;;;;;;;;;;4952311;28;20021;-64
2022/07/04 00:11:34;;;;;;;;;;;;;;;;;;4961214;28;19918;-64
2022/07/04 00:14:00;;;;;;;;;;;;;;;;;;4964715;28;19918;-64
2022/07/04 00:16:25;;;;;;;;;;;;;;;;;;4953335;28;20378;-64
2022/07/04 00:18:50;;;;;;;;;;;;;;;;;;4959416;28;19925;-64
2022/07/04 00:21:15;;;;;;;;;;;;;;;;;;4933242;28;19919;-64
2022/07/04 00:23:40;;;;;;;;;;;;;;;;;;4949734;28;19918;-65
2022/07/04 00:26:06;;;;;;;;;;;;;;;;;;4954347;28;19947;-64
2022/07/04 00:28:31;;;;;;;;;;;;;;;;;;4953731;28;19930;-65
2022/07/04 00:30:56;;;;;;;;;;;;;;;;;;4952008;28;20398;-63
2022/07/04 00:33:21;;;;;;;;;;;;;;;;;;4949831;28;20593;-64
2022/07/04 00:35:46;;;;;;;;;;;;;;;;;;4953424;28;20054;-64
2022/07/04 00:38:12;;;;;;;;;;;;;;;;;;4954005;28;20023;-64
2022/07/04 00:40:37;;;;;;;;;;;;;;;;;;4938530;28;19918;-64
2022/07/04 00:43:02;;;;;;;;;;;;;;;;;;4941287;29;19919;-64
2022/07/04 00:45:27;;;;;;;;;;;;;;;;;;4944137;28;20079;-65
2022/07/04 00:47:52;;;;;;;;;;;;;;;;;;4950678;28;20332;-63
2022/07/04 00:50:18;;;;;;;;;;;;;;;;;;4954431;28;20367;-63
2022/07/04 00:52:43;;;;;;;;;;;;;;;;;;4954853;28;20028;-64
2022/07/04 00:55:08;;;;;;;;;;;;;;;;;;4954744;28;19926;-64
2022/07/04 00:57:33;;;;;;;;;;;;;;;;;;4954277;28;19937;-64
2022/07/04 00:59:59;;;;;;;;;;;;;;;;;;4955572;28;19922;-64
2022/07/04 01:02:24;;;;;;;;;;;;;;;;;;4958269;28;19921;-65
2022/07/04 01:04:49;;;;;;;;;;;;;;;;;;4951869;28;19965;-64
2022/07/04 01:07:14;;;;;;;;;;;;;;;;;;4959337;28;19968;-64
2022/07/04 01:09:40;;;;;;;;;;;;;;;;;;4954976;28;19925;-65
2022/07/04 01:12:06;;;;;;;;;;;;;;;;;;4954463;28;19922;-64
2022/07/04 01:14:31;;;;;;;;;;;;;;;;;;4968991;28;19926;-64
2022/07/04 01:16:56;;;;;;;;;;;;;;;;;;4952122;28;20414;-64
2022/07/04 01:19:21;;;;;;;;;;;;;;;;;;4947414;28;19918;-64
2022/07/04 01:21:46;;;;;;;;;;;;;;;;;;4955422;28;19928;-65
2022/07/04 01:24:12;;;;;;;;;;;;;;;;;;4951891;28;19926;-64
2022/07/04 01:26:37;;;;;;;;;;;;;;;;;;4955345;28;20064;-64
2022/07/04 01:29:02;;;;;;;;;;;;;;;;;;4947199;28;20062;-64
2022/07/04 01:31:28;;;;;;;;;;;;;;;;;;4958237;28;20021;-64
2022/07/04 01:33:53;;;;;;;;;;;;;;;;;;4955044;28;19925;-63
2022/07/04 01:36:18;;;;;;;;;;;;;;;;;;4954073;28;19957;-64
2022/07/04 01:38:43;;;;;;;;;;;;;;;;;;4947836;28;19929;-64
2022/07/04 01:41:09;;;;;;;;;;;;;;;;;;4960982;28;20025;-64
2022/07/04 01:43:35;;;;;;;;;;;;;;;;;;4970002;28;20355;-64
2022/07/04 01:46:00;;;;;;;;;;;;;;;;;;4954196;28;20016;-65
2022/07/04 01:48:25;;;;;;;;;;;;;;;;;;4955391;28;20547;-65
2022/07/04 01:50:50;;;;;;;;;;;;;;;;;;4954858;28;20438;-64
2022/07/04 01:53:15;;;;;;;;;;;;;;;;;;4948121;28;19918;-64
2022/07/04 01:55:41;;;;;;;;;;;;;;;;;;4960780;28;19926;-64
2022/07/04 01:58:06;;;;;;;;;;;;;;;;;;4963161;28;19918;-64
2022/07/04 02:03:15;;;;;;;;;;;;;;;;;;4954797;28;19989;-64
2022/07/04 02:05:40;;;;;;;;;;;;;;;;;;4951310;28;20363;-64
2022/07/04 02:08:05;;;;;;;;;;;;;;;;;;4954698;28;19930;-65
2022/07/04 02:10:31;;;;;;;;;;;;;;;;;;4960320;28;19918;-65
2022/07/04 02:13:02;;;;;;;;;;;;;;;;;;4952417;28;20659;-63
2022/07/04 02:15:27;;;;;;;;;;;;;;;;;;4968124;28;19918;-64
2022/07/04 02:17:52;;;;;;;;;;;;;;;;;;4937790;28;19925;-64
2022/07/04 02:20:17;;;;;;;;;;;;;;;;;;4949329;28;19919;-64
2022/07/04 02:22:43;;;;;;;;;;;;;;;;;;4966405;28;20862;-64
2022/07/04 02:25:08;;;;;;;;;;;;;;;;;;4961472;28;19949;-64
2022/07/04 02:27:33;;;;;;;;;;;;;;;;;;4967933;28;19968;-64
2022/07/04 02:29:58;;;;;;;;;;;;;;;;;;4957432;28;19933;-64
2022/07/04 02:32:24;;;;;;;;;;;;;;;;;;4949478;28;19923;-63
2022/07/04 02:34:49;;;;;;;;;;;;;;;;;;4965239;28;19937;-64
2022/07/04 02:37:14;;;;;;;;;;;;;;;;;;4961428;28;20041;-64
2022/07/04 02:39:39;;;;;;;;;;;;;;;;;;4955715;28;19929;-64
2022/07/04 02:42:05;;;;;;;;;;;;;;;;;;4954134;28;20026;-64
2022/07/04 02:44:30;;;;;;;;;;;;;;;;;;4965902;28;19922;-63
2022/07/04 02:46:55;;;;;;;;;;;;;;;;;;4957049;28;19918;-64
2022/07/04 02:49:20;;;;;;;;;;;;;;;;;;4950708;28;19918;-64
2022/07/04 02:51:45;;;;;;;;;;;;;;;;;;4959235;28;19918;-64
2022/07/04 02:54:11;;;;;;;;;;;;;;;;;;4959632;28;19918;-64
2022/07/04 02:56:36;;;;;;;;;;;;;;;;;;4953768;28;19918;-63
2022/07/04 02:59:01;;;;;;;;;;;;;;;;;;4957864;28;19997;-63
2022/07/04 03:01:26;;;;;;;;;;;;;;;;;;4949949;28;19925;-64
2022/07/04 03:03:51;;;;;;;;;;;;;;;;;;4957133;28;19980;-63
2022/07/04 03:06:17;;;;;;;;;;;;;;;;;;4959452;28;19918;-64
2022/07/04 03:08:42;;;;;;;;;;;;;;;;;;4962276;28;19928;-64
2022/07/04 03:11:07;;;;;;;;;;;;;;;;;;4956262;28;19918;-64
2022/07/04 03:13:32;;;;;;;;;;;;;;;;;;4938428;28;19918;-64
2022/07/04 03:15:58;;;;;;;;;;;;;;;;;;4946349;28;19925;-64
2022/07/04 03:18:23;;;;;;;;;;;;;;;;;;4946103;28;19940;-64
2022/07/04 03:20:48;;;;;;;;;;;;;;;;;;4948441;28;19918;-64
2022/07/04 03:23:13;;;;;;;;;;;;;;;;;;4957135;28;19965;-63
2022/07/04 03:25:39;;;;;;;;;;;;;;;;;;4952848;28;19918;-63
2022/07/04 03:28:05;;;;;;;;;;;;;;;;;;4959387;28;19929;-64
2022/07/04 03:30:30;;;;;;;;;;;;;;;;;;4947587;28;19926;-64
2022/07/04 03:32:55;;;;;;;;;;;;;;;;;;4949643;28;20419;-64
2022/07/04 03:35:20;;;;;;;;;;;;;;;;;;4945943;28;19918;-64
2022/07/04 03:37:46;;;;;;;;;;;;;;;;;;4948314;28;19925;-63
2022/07/04 03:40:11;;;;;;;;;;;;;;;;;;4964199;28;19918;-64
2022/07/04 03:42:36;;;;;;;;;;;;;;;;;;4937111;28;19929;-63
2022/07/04 03:45:01;;;;;;;;;;;;;;;;;;4959990;28;19926;-64
2022/07/04 03:47:26;;;;;;;;;;;;;;;;;;4965427;28;20028;-64
2022/07/04 03:49:52;;;;;;;;;;;;;;;;;;4951484;28;19926;-62
2022/07/04 03:52:17;;;;;;;;;;;;;;;;;;4941281;28;19919;-63
2022/07/04 03:54:42;;;;;;;;;;;;;;;;;;4954343;28;19945;-64
2022/07/04 03:57:07;;;;;;;;;;;;;;;;;;4951687;28;19923;-63
2022/07/04 03:59:32;;;;;;;;;;;;;;;;;;4955650;28;19918;-63
2022/07/04 04:01:58;;;;;;;;;;;;;;;;;;4949113;28;20032;-63
2022/07/04 04:07:07;;;;;;;;;;;;;;;;;;4953593;28;20276;-64
2022/07/04 04:09:32;;;;;;;;;;;;;;;;;;4947284;28;19954;-63
2022/07/04 04:11:57;;;;;;;;;;;;;;;;;;4954803;28;19921;-63
2022/07/04 04:14:24;;;;;;;;;;;;;;;;;;4949268;28;19926;-63
2022/07/04 04:16:49;;;;;;;;;;;;;;;;;;4954479;28;19926;-63
2022/07/04 04:19:14;;;;;;;;;;;;;;;;;;4932694;28;20378;-64
2022/07/04 04:21:40;;;;;;;;;;;;;;;;;;4961208;28;19975;-64
2022/07/04 04:24:05;;;;;;;;;;;;;;;;;;4950593;28;19918;-63
2022/07/04 04:26:30;;;;;;;;;;;;;;;;;;4947620;28;19968;-64
2022/07/04 04:28:55;;;;;;;;;;;;;;;;;;4941219;28;19918;-64
2022/07/04 04:31:20;;;;;;;;;;;;;;;;;;4952567;28;19930;-63
2022/07/04 04:33:46;;;;;;;;;;;;;;;;;;4948875;28;19984;-64
2022/07/04 04:36:11;;;;;;;;;;;;;;;;;;4952962;28;19918;-64
2022/07/04 04:38:36;;;;;;;;;;;;;;;;;;4958829;28;19914;-64
2022/07/04 04:41:01;;;;;;;;;;;;;;;;;;4956012;28;19945;-64
2022/07/04 04:43:27;;;;;;;;;;;;;;;;;;4952062;28;20356;-64
2022/07/04 04:45:52;;;;;;;;;;;;;;;;;;4932098;28;20434;-64
2022/07/04 04:48:17;;;;;;;;;;;;;;;;;;4956644;28;19984;-64
2022/07/04 04:50:42;;;;;;;;;;;;;;;;;;4947883;28;20339;-64
2022/07/04 04:53:07;;;;;;;;;;;;;;;;;;4954352;28;20351;-64
2022/07/04 04:55:33;;;;;;;;;;;;;;;;;;4959634;28;20422;-64
2022/07/04 04:57:58;;;;;;;;;;;;;;;;;;4945079;28;19918;-64
2022/07/04 05:00:23;;;;;;;;;;;;;;;;;;4941889;28;20520;-64
2022/07/04 05:02:48;;;;;;;;;;;;;;;;;;4959199;28;20350;-64
2022/07/04 05:05:13;;;;;;;;;;;;;;;;;;4952161;28;20296;-63
2022/07/04 05:07:39;;;;;;;;;;;;;;;;;;4950593;28;20433;-64
2022/07/04 05:10:04;;;;;;;;;;;;;;;;;;4944078;28;19922;-63
2022/07/04 05:12:29;;;;;;;;;;;;;;;;;;4940337;28;19926;-63
2022/07/04 05:14:54;;;;;;;;;;;;;;;;;;4936540;28;20335;-63
2022/07/04 05:17:20;;;;;;;;;;;;;;;;;;4949594;28;19957;-63
2022/07/04 05:19:45;;;;;;;;;;;;;;;;;;4945876;28;20065;-65
2022/07/04 05:22:10;;;;;;;;;;;;;;;;;;4947867;28;19918;-63
2022/07/04 05:24:39;;;;;;;;;;;;;;;;;;4955044;28;19918;-63
2022/07/04 05:27:04;;;;;;;;;;;;;;;;;;4947597;28;20398;-63
2022/07/04 05:29:29;;;;;;;;;;;;;;;;;;4951681;28;20315;-64
2022/07/04 05:31:54;;;;;;;;;;;;;;;;;;4948306;28;19949;-63
2022/07/04 05:34:19;;;;;;;;;;;;;;;;;;4947812;28;20338;-65
2022/07/04 05:36:45;;;;;;;;;;;;;;;;;;4952646;28;19921;-65
2022/07/04 05:39:10;;;;;;;;;;;;;;;;;;4951795;28;20331;-65
2022/07/04 05:41:35;;;;;;;;;;;;;;;;;;4954611;28;20331;-65
2022/07/04 05:44:00;;;;;;;;;;;;;;;;;;4952135;28;20397;-65
2022/07/04 05:46:26;;;;;;;;;;;;;;;;;;4951456;28;19956;-66
2022/07/04 05:48:51;;;;;;;;;;;;;;;;;;4957838;28;20294;-66
2022/07/04 05:51:16;;;;;;;;;;;;;;;;;;4950364;28;19997;-66
2022/07/04 05:53:41;;;;;;;;;;;;;;;;;;4955475;28;20008;-65
2022/07/04 05:56:07;;;;;;;;;;;;;;;;;;4938538;28;20295;-66
2022/07/04 05:58:32;;;;;;;;;;;;;;;;;;4952306;28;19918;-65
2022/07/04 06:00:57;;;;;;;;;;;;;;;;;;4948412;28;20327;-66
2022/07/04 06:03:22;;;;;;;;;;;;;;;;;;4952563;28;19961;-66
2022/07/04 06:05:49;;;;;;;;;;;;;;;;;;4957253;28;20032;-66
2022/07/04 06:08:14;;;;;;;;;;;;;;;;;;4948135;28;20294;-64
2022/07/04 06:10:39;;;;;;;;;;;;;;;;;;4950822;28;20291;-65
2022/07/04 06:13:05;;;;;;;;;;;;;;;;;;4955950;28;19922;-65
2022/07/04 06:15:30;;;;;;;;;;;;;;;;;;4964370;28;19922;-65
2022/07/04 06:17:56;;;;;;;;;;;;;;;;;;4955939;28;19973;-66
2022/07/04 06:20:22;;;;;;;;;;;;;;;;;;4951130;28;19919;-65
2022/07/04 06:22:48;;;;;;;;;;;;;;;;;;4950316;28;19918;-66
2022/07/04 06:25:14;;;;;;;;;;;;;;;;;;4959597;28;19981;-65
2022/07/04 06:27:39;;;;;;;;;;;;;;;;;;4945323;28;20339;-65
2022/07/04 06:30:04;;;;;;;;;;;;;;;;;;4952524;28;20328;-65
2022/07/04 06:32:29;;;;;;;;;;;;;;;;;;4958311;28;19924;-65
2022/07/04 06:37:38;;;;;;;;;;;;;;;;;;4952094;28;20398;-64
2022/07/04 06:40:04;;;;;;;;;;;;;;;;;;4949260;28;19918;-65
2022/07/04 06:42:29;;;;;;;;;;;;;;;;;;4951350;28;20379;-65
2022/07/04 06:44:54;;;;;;;;;;;;;;;;;;4955399;28;20485;-64
2022/07/04 06:47:19;;;;;;;;;;;;;;;;;;4947271;28;20024;-65
2022/07/04 06:49:45;;;;;;;;;;;;;;;;;;4953819;28;20398;-65
2022/07/04 06:52:10;;;;;;;;;;;;;;;;;;4947504;28;19926;-65
2022/07/04 06:54:35;;;;;;;;;;;;;;;;;;4950725;28;19940;-65
2022/07/04 06:57:01;;;;;;;;;;;;;;;;;;4944643;28;20846;-65
2022/07/04 06:59:26;;;;;;;;;;;;;;;;;;4945899;28;19918;-65
2022/07/04 07:01:51;;;;;;;;;;;;;;;;;;4951090;28;19918;-65
2022/07/04 07:04:17;;;;;;;;;;;;;;;;;;4933311;28;20005;-64
2022/07/04 07:06:42;;;;;;;;;;;;;;;;;;4947382;28;20259;-64
2022/07/04 07:09:07;;;;;;;;;;;;;;;;;;4956334;28;20303;-65
2022/07/04 07:11:32;;;;;;;;;;;;;;;;;;4931554;28;19981;-65
2022/07/04 07:13:58;;;;;;;;;;;;;;;;;;4952566;28;20574;-65
2022/07/04 07:16:25;;;;;;;;;;;;;;;;;;4946810;28;19918;-64
2022/07/04 07:18:50;;;;;;;;;;;;;;;;;;4949774;28;20292;-65
2022/07/04 07:21:15;;;;;;;;;;;;;;;;;;4950947;28;20350;-65
2022/07/04 07:23:40;;;;;;;;;;;;;;;;;;4959404;28;19922;-66
2022/07/04 07:26:06;;;;;;;;;;;;;;;;;;4954575;28;20017;-66
2022/07/04 07:28:31;;;;;;;;;;;;;;;;;;4950721;28;19929;-65
2022/07/04 07:30:56;;;;;;;;;;;;;;;;;;4946520;28;19930;-67
2022/07/04 07:33:21;;;;;;;;;;;;;;;;;;4953397;28;19914;-65
2022/07/04 07:35:47;;;;;;;;;;;;;;;;;;4948171;28;19918;-65
2022/07/04 07:38:12;;;;;;;;;;;;;;;;;;4950782;28;20833;-65
2022/07/04 07:40:37;;;;;;;;;;;;;;;;;;4945663;28;19918;-66
2022/07/04 07:43:02;;;;;;;;;;;;;;;;;;4947516;28;21043;-65
2022/07/04 07:45:28;;;;;;;;;;;;;;;;;;4949453;28;19918;-64
2022/07/04 07:47:53;;;;;;;;;;;;;;;;;;4946435;28;19922;-66
2022/07/04 07:50:18;;;;;;;;;;;;;;;;;;4954577;28;19993;-65
2022/07/04 07:52:43;;;;;;;;;;;;;;;;;;4961205;28;20026;-65
2022/07/04 07:55:08;;;;;;;;;;;;;;;;;;4950262;28;20262;-66
2022/07/04 07:57:34;;;;;;;;;;;;;;;;;;4953311;28;19919;-65
2022/07/04 07:59:59;;;;;;;;;;;;;;;;;;4961212;28;19918;-65
2022/07/04 08:04:34;;;;;;;;;;;;;;;;;;4953690;28;19918;-66
2022/07/04 08:05:09;;;;;;;;;;;;;;;;;;4949160;28;20322;-66
2022/07/04 08:07:34;;;;;;;;;;;;;;;;;;4929588;28;19933;-65
2022/07/04 08:10:00;;;;;;;;;;;;;;;;;;4956147;28;19917;-66
2022/07/04 08:12:25;;;;;;;;;;;;;;;;;;4947981;28;20381;-68
2022/07/04 08:14:50;;;;;;;;;;;;;;;;;;4952626;28;20848;-67
2022/07/04 08:17:15;;;;;;;;;;;;;;;;;;4958058;28;19922;-66
2022/07/04 08:19:41;;;;;;;;;;;;;;;;;;4942770;28;19922;-66
2022/07/04 08:22:06;;;;;;;;;;;;;;;;;;4935233;28;20196;-67
2022/07/04 08:24:31;;;;;;;;;;;;;;;;;;4945517;28;19926;-67
2022/07/04 08:26:56;;;;;;;;;;;;;;;;;;4961256;28;20000;-66
2022/07/04 08:29:21;;;;;;;;;;;;;;;;;;4945841;28;19930;-67
2022/07/04 08:31:47;;;;;;;;;;;;;;;;;;4951344;28;19922;-67
2022/07/04 08:34:12;;;;;;;;;;;;;;;;;;4955136;28;19922;-67
2022/07/04 08:36:37;;;;;;;;;;;;;;;;;;4949900;28;19918;-66
2022/07/04 08:39:02;;;;;;;;;;;;;;;;;;4943728;28;20269;-66
2022/07/04 08:41:27;;;;;;;;;;;;;;;;;;4948019;28;19945;-67
2022/07/04 08:43:53;;;;;;;;;;;;;;;;;;4946904;28;19952;-67
2022/07/04 08:46:18;;;;;;;;;;;;;;;;;;4947986;28;19922;-65
2022/07/04 08:48:44;;;;;;;;;;;;;;;;;;4947871;28;19977;-65
2022/07/04 08:51:09;;;;;;;;;;;;;;;;;;4961921;28;19922;-66
2022/07/04 08:53:34;;;;;;;;;;;;;;;;;;4946475;28;20440;-65
2022/07/04 08:58:43;;;;;;;;;;;;;;;;;;4954079;28;20025;-67
2022/07/04 09:01:14;;;;;;;;;;;;;;;;;;4956854;28;19917;-67
2022/07/04 09:03:39;;;;;;;;;;;;;;;;;;4948266;28;19949;-67
2022/07/04 09:06:04;;;;;;;;;;;;;;;;;;4943157;28;20013;-66
2022/07/04 09:08:30;;;;;;;;;;;;;;;;;;4931110;28;19926;-66
2022/07/04 09:10:55;;;;;;;;;;;;;;;;;;4941876;28;19918;-66
2022/07/04 09:13:20;;;;;;;;;;;;;;;;;;4958846;28;20422;-66
2022/07/04 09:15:45;;;;;;;;;;;;;;;;;;4948356;28;19922;-66
2022/07/04 09:18:10;;;;;;;;;;;;;;;;;;4938156;28;19922;-67
2022/07/04 09:20:36;;;;;;;;;;;;;;;;;;4962163;28;19918;-65
2022/07/04 09:23:01;;;;;;;;;;;;;;;;;;4960286;28;19918;-65
2022/07/04 09:25:26;;;;;;;;;;;;;;;;;;4960478;28;20164;-67
2022/07/04 09:27:51;;;;;;;;;;;;;;;;;;4949962;28;20346;-67
2022/07/04 09:30:17;;;;;;;;;;;;;;;;;;4939755;28;20271;-67
2022/07/04 09:32:42;;;;;;;;;;;;;;;;;;4950331;28;20044;-66
2022/07/04 09:35:07;;;;;;;;;;;;;;;;;;4954309;28;19918;-65
2022/07/04 09:37:35;;;;;;;;;;;;;;;;;;4961383;28;20217;-65
2022/07/04 09:40:00;;;;;;;;;;;;;;;;;;4962157;28;20294;-65
2022/07/04 09:42:25;;;;;;;;;;;;;;;;;;4946443;28;19918;-66
2022/07/04 09:44:51;;;;;;;;;;;;;;;;;;4947644;28;19930;-66
2022/07/04 09:47:16;;;;;;;;;;;;;;;;;;4954932;28;19922;-66
2022/07/04 09:49:41;;;;;;;;;;;;;;;;;;4947957;28;19923;-65
2022/07/04 09:52:06;;;;;;;;;;;;;;;;;;4959900;28;20645;-67
2022/07/04 09:54:32;;;;;;;;;;;;;;;;;;4955936;28;19918;-66
2022/07/04 09:56:57;;;;;;;;;;;;;;;;;;4952620;28;20287;-66
2022/07/04 09:59:22;;;;;;;;;;;;;;;;;;4950480;28;19950;-65
2022/07/04 10:01:47;;;;;;;;;;;;;;;;;;4957022;28;19985;-66
2022/07/04 10:04:13;;;;;;;;;;;;;;;;;;4931775;28;20331;-66
2022/07/04 10:06:38;;;;;;;;;;;;;;;;;;4962032;28;19945;-66
2022/07/04 10:09:03;;;;;;;;;;;;;;;;;;4943611;28;19932;-65
2022/07/04 10:11:28;;;;;;;;;;;;;;;;;;4961347;28;19918;-67
2022/07/04 10:13:54;;;;;;;;;;;;;;;;;;4938705;28;20154;-66
2022/07/04 10:16:19;;;;;;;;;;;;;;;;;;4938666;28;20164;-66
2022/07/04 10:18:45;;;;;;;;;;;;;;;;;;4951133;28;19922;-66
2022/07/04 10:21:10;;;;;;;;;;;;;;;;;;4940561;28;20174;-65
2022/07/04 10:23:35;;;;;;;;;;;;;;;;;;4960413;28;19925;-65
2022/07/04 10:26:00;;;;;;;;;;;;;;;;;;4945610;28;19929;-66
2022/07/04 10:28:26;;;;;;;;;;;;;;;;;;4953456;28;20752;-67
2022/07/04 10:30:51;;;;;;;;;;;;;;;;;;4946924;28;19965;-66
2022/07/04 10:33:16;;;;;;;;;;;;;;;;;;4947362;28;19958;-65
2022/07/04 10:35:41;;;;;;;;;;;;;;;;;;4958614;28;20001;-65
2022/07/04 10:38:07;;;;;;;;;;;;;;;;;;4944560;28;20423;-65
2022/07/04 10:40:32;;;;;;;;;;;;;;;;;;4949047;28;19919;-66
2022/07/04 10:42:58;;;;;;;;;;;;;;;;;;4941761;28;19918;-66
2022/07/04 10:45:28;;;;;;;;;;;;;;;;;;4951286;28;19928;-65
2022/07/04 10:47:53;;;;;;;;;;;;;;;;;;4952625;28;20548;-67
2022/07/04 10:50:18;;;;;;;;;;;;;;;;;;4945802;28;19926;-66
2022/07/04 10:52:43;;;;;;;;;;;;;;;;;;4935019;28;20069;-66
2022/07/04 10:55:09;;;;;;;;;;;;;;;;;;4952795;28;19996;-66
2022/07/04 10:57:34;;;;;;;;;;;;;;;;;;4951070;28;19961;-66
2022/07/04 11:00:01;;;;;;;;;;;;;;;;;;4958087;28;19945;-67
2022/07/04 11:02:26;;;;;;;;;;;;;;;;;;4956716;28;20409;-66
2022/07/04 11:04:51;;;;;;;;;;;;;;;;;;4937789;28;19926;-66
2022/07/04 11:07:18;;;;;;;;;;;;;;;;;;4954097;28;20333;-67
2022/07/04 11:09:43;;;;;;;;;;;;;;;;;;4962813;28;19989;-67
2022/07/04 11:12:08;;;;;;;;;;;;;;;;;;4964268;28;19923;-67
2022/07/04 11:14:33;;;;;;;;;;;;;;;;;;4943816;28;20319;-67
2022/07/04 11:16:58;;;;;;;;;;;;;;;;;;4949171;28;19918;-67
2022/07/04 11:19:24;;;;;;;;;;;;;;;;;;4963827;28;19918;-67
2022/07/04 11:21:49;;;;;;;;;;;;;;;;;;4951292;28;20005;-68
2022/07/04 11:24:14;;;;;;;;;;;;;;;;;;4964686;28;19997;-66
2022/07/04 11:26:39;;;;;;;;;;;;;;;;;;4934949;28;20073;-67
2022/07/04 11:29:04;;;;;;;;;;;;;;;;;;4947943;28;19926;-68
2022/07/04 11:31:31;;;;;;;;;;;;;;;;;;4942061;28;19922;-67
2022/07/04 11:33:56;;;;;;;;;;;;;;;;;;4949336;28;19926;-68
2022/07/04 11:36:22;;;;;;;;;;;;;;;;;;4951366;28;20022;-67
2022/07/04 11:38:47;;;;;;;;;;;;;;;;;;4944640;28;19918;-66
2022/07/04 11:46:40;;;;;;;;;;;;;;;;;;4948980;28;20001;-68
2022/07/04 11:49:05;;;;;;;;;;;;;;;;;;4957587;28;20793;-68
2022/07/04 11:51:30;;;;;;;;;;;;;;;;;;4956740;28;19922;-66
2022/07/04 11:53:56;;;;;;;;;;;;;;;;;;4957834;28;19925;-67
2022/07/04 11:56:21;;;;;;;;;;;;;;;;;;4964299;28;19937;-68
2022/07/04 11:58:46;;;;;;;;;;;;;;;;;;4942547;28;19957;-67
2022/07/04 12:01:11;;;;;;;;;;;;;;;;;;4944384;28;20296;-66
2022/07/04 12:03:36;;;;;;;;;;;;;;;;;;4952389;28;19925;-68
2022/07/04 12:06:02;;;;;;;;;;;;;;;;;;4945688;28;19981;-68
2022/07/04 12:08:27;;;;;;;;;;;;;;;;;;4963374;28;20010;-67
2022/07/04 12:10:52;;;;;;;;;;;;;;;;;;4955310;28;19957;-66
2022/07/04 12:13:19;;;;;;;;;;;;;;;;;;4945095;28;20400;-67
2022/07/04 12:15:44;;;;;;;;;;;;;;;;;;4965280;28;20513;-68
2022/07/04 12:18:10;;;;;;;;;;;;;;;;;;4958156;28;19926;-68
2022/07/04 12:20:35;;;;;;;;;;;;;;;;;;4954341;28;20037;-68
2022/07/04 12:23:00;;;;;;;;;;;;;;;;;;4936721;28;20012;-68
2022/07/04 12:25:25;;;;;;;;;;;;;;;;;;4948935;28;20108;-68
2022/07/04 12:27:50;;;;;;;;;;;;;;;;;;4939639;28;20148;-68
2022/07/04 12:30:16;;;;;;;;;;;;;;;;;;4949667;28;20057;-68
2022/07/04 12:32:41;;;;;;;;;;;;;;;;;;4955364;28;19923;-68
2022/07/04 12:35:06;;;;;;;;;;;;;;;;;;4937193;28;20297;-68
2022/07/04 12:37:31;;;;;;;;;;;;;;;;;;4935523;28;19929;-69
2022/07/04 12:39:56;;;;;;;;;;;;;;;;;;4955940;28;19918;-69
2022/07/04 12:42:22;;;;;;;;;;;;;;;;;;4935611;28;19926;-71
2022/07/04 12:44:51;;;;;;;;;;;;;;;;;;4966822;28;19929;-68
2022/07/04 12:47:16;;;;;;;;;;;;;;;;;;4941267;28;20312;-69
2022/07/04 12:49:42;;;;;;;;;;;;;;;;;;4936366;28;20383;-69
2022/07/04 12:52:07;;;;;;;;;;;;;;;;;;4967964;28;19996;-69
2022/07/04 12:54:32;;;;;;;;;;;;;;;;;;4950334;28;19918;-69
2022/07/04 12:56:57;;;;;;;;;;;;;;;;;;4961876;28;19929;-69
2022/07/04 12:59:23;;;;;;;;;;;;;;;;;;4952409;28;19960;-69
2022/07/04 13:01:48;;;;;;;;;;;;;;;;;;4956742;28;19918;-68
2022/07/04 13:04:13;;;;;;;;;;;;;;;;;;4956557;28;19925;-69
2022/07/04 13:06:38;;;;;;;;;;;;;;;;;;4953874;28;19969;-69
2022/07/04 13:09:04;;;;;;;;;;;;;;;;;;4961690;28;19922;-69
2022/07/04 13:14:13;;;;;;;;;;;;;;;;;;4947198;28;19919;-70
2022/07/04 13:16:38;;;;;;;;;;;;;;;;;;4971864;28;19925;-68
2022/07/04 13:19:03;;;;;;;;;;;;;;;;;;4955328;28;19918;-69
2022/07/04 13:21:29;;;;;;;;;;;;;;;;;;4959765;28;19918;-68
2022/07/04 13:23:54;;;;;;;;;;;;;;;;;;4956181;28;19914;-69
2022/07/04 13:26:19;;;;;;;;;;;;;;;;;;4960639;28;20523;-68
2022/07/04 13:28:44;;;;;;;;;;;;;;;;;;4953225;28;19922;-70
2022/07/04 13:31:10;;;;;;;;;;;;;;;;;;4947301;28;19930;-69
2022/07/04 13:33:35;;;;;;;;;;;;;;;;;;4953519;28;19922;-68
2022/07/04 13:36:00;;;;;;;;;;;;;;;;;;4950891;28;20016;-69
2022/07/04 13:38:25;;;;;;;;;;;;;;;;;;4947501;28;19918;-69
2022/07/04 13:40:51;;;;;;;;;;;;;;;;;;4952321;28;19922;-68
2022/07/04 13:43:16;;;;;;;;;;;;;;;;;;4946275;28;19924;-68
2022/07/04 13:45:43;;;;;;;;;;;;;;;;;;4953606;28;19929;-68
2022/07/04 13:48:11;;;;;;;;;;;;;;;;;;4939815;28;19922;-68
2022/07/04 13:50:37;;;;;;;;;;;;;;;;;;4946987;28;19932;-68
2022/07/04 13:53:03;;;;;;;;;;;;;;;;;;4955964;28;19945;-69
2022/07/04 13:55:28;;;;;;;;;;;;;;;;;;4953562;28;20322;-68
2022/07/04 13:57:53;;;;;;;;;;;;;;;;;;4945454;28;19918;-69
2022/07/04 14:00:19;;;;;;;;;;;;;;;;;;4956079;28;20192;-69
2022/07/04 14:02:44;;;;;;;;;;;;;;;;;;4949023;28;19926;-70
2022/07/04 14:05:09;;;;;;;;;;;;;;;;;;4970166;28;19964;-70
2022/07/04 14:07:34;;;;;;;;;;;;;;;;;;4968867;28;19964;-68
2022/07/04 14:10:00;;;;;;;;;;;;;;;;;;4958934;28;20348;-68
2022/07/04 14:12:25;;;;;;;;;;;;;;;;;;4953896;28;19921;-69
2022/07/04 14:14:50;;;;;;;;;;;;;;;;;;4948606;28;19918;-68
2022/07/04 14:17:15;;;;;;;;;;;;;;;;;;4967593;28;21053;-69
2022/07/04 14:19:41;;;;;;;;;;;;;;;;;;4950586;28;20181;-68
2022/07/04 14:22:06;;;;;;;;;;;;;;;;;;4949344;28;19915;-68
2022/07/04 14:24:31;;;;;;;;;;;;;;;;;;4954304;28;19929;-68
2022/07/04 14:26:56;;;;;;;;;;;;;;;;;;4948570;28;20526;-69
2022/07/04 14:29:21;;;;;;;;;;;;;;;;;;4965262;28;19926;-69
2022/07/04 14:31:47;;;;;;;;;;;;;;;;;;4943867;28;19927;-70
2022/07/04 14:34:12;;;;;;;;;;;;;;;;;;4944511;28;20744;-70
2022/07/04 14:36:38;;;;;;;;;;;;;;;;;;4949498;28;20169;-69
2022/07/04 14:39:03;;;;;;;;;;;;;;;;;;4945631;28;20296;-67
2022/07/04 14:41:28;;;;;;;;;;;;;;;;;;4966081;28;19921;-70
2022/07/04 14:43:54;;;;;;;;;;;;;;;;;;4945042;28;19964;-68
2022/07/04 14:46:19;;;;;;;;;;;;;;;;;;4958929;28;20330;-67
2022/07/04 14:48:44;;;;;;;;;;;;;;;;;;4948975;28;20462;-68
2022/07/04 14:51:10;;;;;;;;;;;;;;;;;;4930695;28;20010;-70
2022/07/04 14:53:35;;;;;;;;;;;;;;;;;;4963519;28;19965;-70
2022/07/04 14:56:00;;;;;;;;;;;;;;;;;;4942807;28;19918;-69
2022/07/04 14:58:25;;;;;;;;;;;;;;;;;;4958959;28;20318;-67
2022/07/04 15:00:51;;;;;;;;;;;;;;;;;;4962010;28;20024;-69
2022/07/04 15:03:16;;;;;;;;;;;;;;;;;;4946202;28;19917;-68
2022/07/04 15:05:41;;;;;;;;;;;;;;;;;;4949686;28;19923;-69
2022/07/04 15:08:06;;;;;;;;;;;;;;;;;;4942612;28;19975;-69
2022/07/04 15:10:32;;;;;;;;;;;;;;;;;;4956528;28;19977;-68
2022/07/04 15:12:57;;;;;;;;;;;;;;;;;;4950214;28;20923;-69
2022/07/04 15:15:22;;;;;;;;;;;;;;;;;;4945530;28;20020;-69
2022/07/04 15:17:48;;;;;;;;;;;;;;;;;;4951926;28;19922;-69
2022/07/04 15:25:41;;;;;;;;;;;;;;;;;;4947170;28;19919;-69
2022/07/04 15:28:06;;;;;;;;;;;;;;;;;;4943793;28;19977;-69
2022/07/04 15:30:31;;;;;;;;;;;;;;;;;;4961332;28;19933;-69
2022/07/04 15:32:56;;;;;;;;;;;;;;;;;;4960274;28;20195;-67
2022/07/04 15:35:22;;;;;;;;;;;;;;;;;;4952445;28;19928;-67
2022/07/04 15:37:47;;;;;;;;;;;;;;;;;;4948184;28;19966;-69
2022/07/04 15:40:12;;;;;;;;;;;;;;;;;;4939851;28;19929;-69
2022/07/04 15:42:37;;;;;;;;;;;;;;;;;;4954443;28;20450;-69
2022/07/04 15:45:02;;;;;;;;;;;;;;;;;;4949893;28;19937;-68
2022/07/04 15:47:28;;;;;;;;;;;;;;;;;;4959821;28;19914;-67
2022/07/04 15:49:53;;;;;;;;;;;;;;;;;;4953744;28;20026;-68
2022/07/04 15:52:18;;;;;;;;;;;;;;;;;;4946434;28;19918;-67
2022/07/04 15:54:44;;;;;;;;;;;;;;;;;;4952184;28;19919;-67
2022/07/04 15:57:09;;;;;;;;;;;;;;;;;;4947732;28;19918;-66
2022/07/04 15:59:34;;;;;;;;;;;;;;;;;;4949961;28;20004;-66
2022/07/04 16:01:59;;;;;;;;;;;;;;;;;;4956198;28;19925;-67
2022/07/04 16:04:24;;;;;;;;;;;;;;;;;;4952074;28;20418;-67
2022/07/04 16:06:50;;;;;;;;;;;;;;;;;;4953695;28;20307;-68
2022/07/04 16:09:15;;;;;;;;;;;;;;;;;;4951368;28;19926;-69
2022/07/04 16:11:41;;;;;;;;;;;;;;;;;;4949011;28;20423;-67
2022/07/04 16:14:06;;;;;;;;;;;;;;;;;;4966510;28;19922;-66
2022/07/04 16:16:31;;;;;;;;;;;;;;;;;;4949565;28;20252;-68
2022/07/04 16:18:57;;;;;;;;;;;;;;;;;;4947495;28;19941;-67
2022/07/04 16:21:22;;;;;;;;;;;;;;;;;;4947081;28;20037;-67
2022/07/04 16:23:48;;;;;;;;;;;;;;;;;;4947615;28;19921;-67
2022/07/04 16:26:13;;;;;;;;;;;;;;;;;;4946952;28;19998;-67
2022/07/04 16:28:38;;;;;;;;;;;;;;;;;;4945091;28;19945;-68
2022/07/04 16:31:03;;;;;;;;;;;;;;;;;;4953356;28;19926;-68
2022/07/04 16:33:28;;;;;;;;;;;;;;;;;;4946187;28;19965;-67
2022/07/04 16:35:53;;;;;;;;;;;;;;;;;;4941169;28;20240;-68
2022/07/04 16:38:19;;;;;;;;;;;;;;;;;;4954075;28;19972;-71
2022/07/04 16:40:44;;;;;;;;;;;;;;;;;;4945008;28;19922;-68
2022/07/04 16:43:09;;;;;;;;;;;;;;;;;;4954264;28;19922;-71
2022/07/04 16:45:34;;;;;;;;;;;;;;;;;;4946763;28;19965;-71
2022/07/04 16:48:00;;;;;;;;;;;;;;;;;;4942126;28;19922;-68
2022/07/04 16:50:25;;;;;;;;;;;;;;;;;;4951787;28;19929;-69
2022/07/04 16:52:50;;;;;;;;;;;;;;;;;;4946832;28;19918;-69
2022/07/04 16:55:15;;;;;;;;;;;;;;;;;;4952495;28;19918;-68
2022/07/04 16:57:41;;;;;;;;;;;;;;;;;;4946743;28;19922;-67